Time;durP1;ratioP1;P1;durP2;ratioP2;P2;SDS_P1;SDS_P2;PMS_P1;PMS_P2;Temp;Humidity;BMP_temperature;BMP_pressure;BME280_temperature;BME280_humidity;BME280_pressure;Samples;Min_cycle;Max_cycle;Signal;HPM_P1;HPM_P2
2023/05/16 00:01:56;;;;;;;;;;;;;;;14.17;79.39;99968.04;108111;1257;125180;-84
2023/05/16 00:04:25;;;;;;;;;;;;;;;14.14;79.28;99968.94;107872;1254;67073;-84
2023/05/16 00:06:52;;;;;;;;;;;;;;;14.11;79.40;99966.12;107669;1254;71387;-84
2023/05/16 00:09:20;;;;;;;;;;;;;;;14.08;79.31;99964.88;107647;1256;124617;-84
2023/05/16 00:11:47;;;;;;;;;;;;;;;14.03;79.21;99963.84;107827;1259;60790;-84
2023/05/16 00:14:14;;;;;;;;;;;;;;;13.98;79.25;99963.14;108077;1256;125478;-84
2023/05/16 00:16:41;;;;;;;;;;;;;;;13.94;79.36;99964.55;109029;1254;65721;-84
2023/05/16 00:19:08;;;;;;;;;;;;;;;13.92;79.43;99964.56;107711;1256;253065;-84
2023/05/16 00:21:36;;;;;;;;;;;;;;;13.87;79.38;99959.45;108126;1254;124912;-84
2023/05/16 00:24:05;;;;;;;;;;;;;;;13.85;79.46;99961.21;107741;1254;59245;-84
2023/05/16 00:26:33;;;;;;;;;;;;;;;13.85;79.58;99962.80;107677;1254;124963;-84
2023/05/16 00:29:01;;;;;;;;;;;;;;;13.84;79.54;99960.69;107760;1257;67065;-84
2023/05/16 00:31:28;;;;;;;;;;;;;;;13.83;79.65;99962.61;107811;1257;73215;-83
2023/05/16 00:33:54;;;;;;;;;;;;;;;13.83;79.49;99962.80;107778;1254;124708;-82
2023/05/16 00:36:22;;;;;;;;;;;;;;;13.79;79.46;99961.23;107764;1254;62155;-82
2023/05/16 00:38:49;;;;;;;;;;;;;;;13.77;79.56;99958.58;108580;1254;124832;-82
2023/05/16 00:41:16;;;;;;;;;;;;;;;13.74;79.57;99962.27;109130;1254;65863;-82
2023/05/16 00:43:43;;;;;;;;;;;;;;;13.70;79.59;99961.05;108869;1254;124788;-82
2023/05/16 00:46:10;;;;;;;;;;;;;;;13.71;79.72;99960.87;108864;1257;59334;-83
2023/05/16 00:48:37;;;;;;;;;;;;;;;13.72;79.70;99958.92;108987;1254;60004;-83
2023/05/16 00:51:08;;;;;;;;;;;;;;;13.73;79.68;99960.69;108764;1254;125206;-83
2023/05/16 00:53:36;;;;;;;;;;;;;;;13.70;79.53;99957.70;109110;1254;66127;-83
2023/05/16 00:56:03;;;;;;;;;;;;;;;13.67;79.55;99959.46;108137;1254;125309;-84
2023/05/16 00:58:32;;;;;;;;;;;;;;;13.66;79.64;99962.82;107849;1254;59255;-83
2023/05/16 01:01:00;;;;;;;;;;;;;;;13.64;79.58;99963.70;109048;1254;59402;-84
2023/05/16 01:03:28;;;;;;;;;;;;;;;13.60;79.46;99961.77;108769;1254;124651;-84
2023/05/16 01:05:55;;;;;;;;;;;;;;;13.57;79.64;99960.16;108649;1260;65944;-84
2023/05/16 01:08:22;;;;;;;;;;;;;;;13.53;79.67;99959.46;108766;1254;124762;-84
2023/05/16 01:11:04;;;;;;;;;;;;;;;13.49;79.60;99958.41;108044;1254;61300;-84
2023/05/16 01:13:49;;;;;;;;;;;;;;;13.45;79.59;99958.92;108177;1254;61207;-83
2023/05/16 01:16:25;;;;;;;;;;;;;;;13.44;79.75;99959.10;107977;1254;74658;-83
2023/05/16 01:19:09;;;;;;;;;;;;;;;13.44;79.74;99957.52;107938;1255;67690;-83
2023/05/16 01:21:41;;;;;;;;;;;;;;;13.42;79.64;99960.52;107813;1254;125460;-83
2023/05/16 01:24:11;;;;;;;;;;;;;;;13.41;79.73;99959.64;107790;1254;60077;-84
2023/05/16 01:26:38;;;;;;;;;;;;;;;13.42;79.72;99961.92;108076;1254;125698;-84
2023/05/16 01:29:06;;;;;;;;;;;;;;;13.44;79.83;99965.98;108139;1254;75217;-85
2023/05/16 01:31:33;;;;;;;;;;;;;;;13.46;79.80;99968.80;108022;1254;65546;-85
2023/05/16 01:34:00;;;;;;;;;;;;;;;13.46;79.70;99972.50;107716;1254;124595;-84
2023/05/16 01:36:36;;;;;;;;;;;;;;;13.46;79.72;99971.61;107884;1254;61120;-83
2023/05/16 01:39:11;;;;;;;;;;;;;;;13.47;79.78;99971.63;107905;1254;125165;-84
2023/05/16 01:41:41;;;;;;;;;;;;;;;13.48;79.88;99976.73;107589;1254;75942;-84
2023/05/16 01:44:16;;;;;;;;;;;;;;;13.50;79.74;99977.96;107784;1259;124911;-84
2023/05/16 01:46:49;;;;;;;;;;;;;;;13.51;79.70;99978.48;108619;1257;70410;-83
2023/05/16 01:49:22;;;;;;;;;;;;;;;13.51;79.64;99978.67;107873;1255;59680;-84
2023/05/16 01:51:51;;;;;;;;;;;;;;;13.51;79.77;99973.91;108153;1254;124710;-83
2023/05/16 01:54:18;;;;;;;;;;;;;;;13.52;79.70;99973.21;107576;1254;74688;-82
2023/05/16 01:56:50;;;;;;;;;;;;;;;13.55;79.74;99973.73;107881;1254;124904;-83
2023/05/16 01:59:22;;;;;;;;;;;;;;;13.56;79.66;99968.98;107946;1254;71167;-85
2023/05/16 02:01:52;;;;;;;;;;;;;;;13.56;79.63;99969.16;107550;1255;124978;-84
2023/05/16 02:04:19;;;;;;;;;;;;;;;13.55;79.63;99966.69;107755;1254;61211;-84
2023/05/16 02:06:47;;;;;;;;;;;;;;;13.56;79.58;99967.91;107638;1256;75183;-85
2023/05/16 02:09:13;;;;;;;;;;;;;;;13.54;79.41;99969.52;107445;1254;125377;-85
2023/05/16 02:11:40;;;;;;;;;;;;;;;13.51;79.45;99970.55;107541;1254;73240;-84
2023/05/16 02:14:08;;;;;;;;;;;;;;;13.51;79.62;99970.38;107467;1254;125309;-83
2023/05/16 02:16:36;;;;;;;;;;;;;;;13.51;79.67;99972.15;107643;1254;59267;-83
2023/05/16 02:19:02;;;;;;;;;;;;;;;13.51;79.55;99973.20;107514;1257;75242;-84
2023/05/16 02:21:35;;;;;;;;;;;;;;;13.51;79.59;99975.67;107520;1257;125151;-84
2023/05/16 02:24:02;;;;;;;;;;;;;;;13.51;79.67;99976.20;107388;1254;72791;-85
2023/05/16 02:26:30;;;;;;;;;;;;;;;13.53;79.72;99978.85;107561;1254;126015;-86
2023/05/16 02:29:05;;;;;;;;;;;;;;;13.54;79.71;99979.04;107729;1256;61198;-87
2023/05/16 02:31:35;;;;;;;;;;;;;;;13.54;79.71;99984.14;107514;1254;74796;-86
2023/05/16 02:34:03;;;;;;;;;;;;;;;13.56;79.74;99982.55;107713;1257;66950;-84
2023/05/16 02:36:36;;;;;;;;;;;;;;;13.57;79.73;99984.84;107885;1254;72365;-85
2023/05/16 02:39:03;;;;;;;;;;;;;;;13.59;79.70;99984.50;107672;1254;125276;-85
2023/05/16 02:41:32;;;;;;;;;;;;;;;13.59;79.71;99983.27;107539;1254;60296;-85
2023/05/16 02:43:59;;;;;;;;;;;;;;;13.59;79.81;99981.14;107482;1255;125382;-85
2023/05/16 02:46:27;;;;;;;;;;;;;;;13.58;79.78;99979.38;107686;1254;65904;-86
2023/05/16 02:48:55;;;;;;;;;;;;;;;13.59;79.71;99978.33;107564;1257;72874;-84
2023/05/16 02:51:23;;;;;;;;;;;;;;;13.58;79.84;99978.50;107515;1257;125409;-83
2023/05/16 02:53:58;;;;;;;;;;;;;;;13.59;79.87;99980.63;107772;1260;60521;-85
2023/05/16 02:56:25;;;;;;;;;;;;;;;13.60;79.74;99985.02;107529;1254;125309;-84
2023/05/16 02:58:53;;;;;;;;;;;;;;;13.59;79.67;99983.79;107929;1254;66287;-85
2023/05/16 03:01:20;;;;;;;;;;;;;;;13.60;79.81;99980.27;107851;1257;71403;-85
2023/05/16 03:03:49;;;;;;;;;;;;;;;13.63;79.81;99978.14;107791;1254;124936;-85
2023/05/16 03:06:17;;;;;;;;;;;;;;;13.65;79.89;99980.09;107887;1257;61785;-86
2023/05/16 03:08:44;;;;;;;;;;;;;;;13.67;79.87;99986.09;107764;1254;124673;-85
2023/05/16 03:11:12;;;;;;;;;;;;;;;13.67;79.86;99985.55;107996;1254;67092;-86
2023/05/16 03:13:39;;;;;;;;;;;;;;;13.70;79.89;99987.67;107617;1258;124968;-83
2023/05/16 03:16:06;;;;;;;;;;;;;;;13.71;79.74;99990.67;107558;1257;61522;-85
2023/05/16 03:18:32;;;;;;;;;;;;;;;13.71;79.77;99993.67;107595;1259;61494;-85
2023/05/16 03:21:00;;;;;;;;;;;;;;;13.71;79.78;99993.14;107637;1259;124760;-85
2023/05/16 03:23:27;;;;;;;;;;;;;;;13.73;79.72;99998.95;107612;1254;65961;-85
2023/05/16 03:26:00;;;;;;;;;;;;;;;13.74;79.64;100003.19;107490;1257;125374;-84
2023/05/16 03:28:27;;;;;;;;;;;;;;;13.75;79.74;100002.30;107490;1254;60551;-85
2023/05/16 03:30:54;;;;;;;;;;;;;;;13.75;79.69;99999.66;107433;1256;59893;-84
2023/05/16 03:33:35;;;;;;;;;;;;;;;13.73;79.61;99997.73;107563;1255;125210;-84
2023/05/16 03:36:05;;;;;;;;;;;;;;;13.73;79.55;99997.91;107723;1258;67640;-84
2023/05/16 03:38:32;;;;;;;;;;;;;;;13.71;79.60;99999.48;107680;1254;124813;-84
2023/05/16 03:41:01;;;;;;;;;;;;;;;13.70;79.53;100001.95;107699;1256;60362;-85
2023/05/16 03:43:27;;;;;;;;;;;;;;;13.68;79.43;99999.11;107946;1256;60116;-84
2023/05/16 03:45:56;;;;;;;;;;;;;;;13.65;79.50;100000.54;107689;1254;125132;-84
2023/05/16 03:48:25;;;;;;;;;;;;;;;13.61;79.38;100004.25;107455;1259;67036;-85
2023/05/16 03:50:54;;;;;;;;;;;;;;;13.57;79.34;100005.83;107247;1254;124494;-85
2023/05/16 03:53:27;;;;;;;;;;;;;;;13.54;79.32;100007.77;107405;1254;62171;-87
2023/05/16 03:55:54;;;;;;;;;;;;;;;13.50;79.34;100011.81;107348;1257;124487;-84
2023/05/16 03:58:23;;;;;;;;;;;;;;;13.50;79.30;100009.70;107525;1254;74685;-86
2023/05/16 04:01:11;;;;;;;;;;;;;;;13.51;79.19;100015.52;107725;1254;65564;-86
2023/05/16 04:03:38;;;;;;;;;;;;;;;13.54;79.15;100023.96;107606;1255;124489;-86
2023/05/16 04:06:06;;;;;;;;;;;;;;;13.56;78.89;100030.69;107441;1254;61897;-85
2023/05/16 04:08:40;;;;;;;;;;;;;;;13.57;78.68;100030.33;107493;1254;124284;-84
2023/05/16 04:11:07;;;;;;;;;;;;;;;13.54;78.53;100035.27;108085;1254;74728;-83
2023/05/16 04:13:33;;;;;;;;;;;;;;;13.53;78.50;100040.02;108082;1254;67071;-87
2023/05/16 04:16:01;;;;;;;;;;;;;;;13.53;78.48;100043.37;107740;1254;124912;-86
2023/05/16 04:18:29;;;;;;;;;;;;;;;13.54;78.34;100045.84;107761;1255;60439;-86
2023/05/16 04:20:57;;;;;;;;;;;;;;;13.54;78.20;100049.36;107703;1254;125516;-86
2023/05/16 04:23:24;;;;;;;;;;;;;;;13.53;78.08;100048.66;107677;1254;74527;-87
2023/05/16 04:25:51;;;;;;;;;;;;;;;13.52;78.04;100048.12;107875;1254;66065;-85
2023/05/16 04:28:18;;;;;;;;;;;;;;;13.53;77.97;100050.59;107579;1254;73912;-88
2023/05/16 04:30:46;;;;;;;;;;;;;;;13.53;77.96;100051.65;107576;1254;61285;-86
2023/05/16 04:33:15;;;;;;;;;;;;;;;13.60;78.03;100058.54;107785;1259;124873;-86
2023/05/16 04:35:44;;;;;;;;;;;;;;;13.64;77.87;100055.73;107804;1256;74677;-84
2023/05/16 04:38:11;;;;;;;;;;;;;;;13.68;77.71;100055.38;107974;1257;125063;-84
2023/05/16 04:40:40;;;;;;;;;;;;;;;13.76;77.69;100056.43;108251;1259;72692;-84
2023/05/16 04:43:07;;;;;;;;;;;;;;;13.84;77.56;100061.74;108028;1257;59420;-83
2023/05/16 04:45:34;;;;;;;;;;;;;;;13.93;77.47;100064.21;108034;1257;125376;-83
2023/05/16 04:48:01;;;;;;;;;;;;;;;14.01;77.10;100065.80;107980;1260;73133;-83
2023/05/16 04:50:28;;;;;;;;;;;;;;;14.05;76.90;100067.38;108146;1254;125584;-82
2023/05/16 04:52:55;;;;;;;;;;;;;;;14.09;76.75;100066.33;108074;1254;72345;-82
2023/05/16 04:55:22;;;;;;;;;;;;;;;14.12;76.62;100072.50;108008;1258;61320;-82
2023/05/16 04:57:49;;;;;;;;;;;;;;;14.20;76.59;100074.09;107708;1254;124947;-82
2023/05/16 05:00:17;;;;;;;;;;;;;;;14.26;76.32;100074.77;108059;1257;74620;-81
2023/05/16 05:02:50;;;;;;;;;;;;;;;14.27;76.08;100078.84;107926;1261;124918;-82
2023/05/16 05:05:17;;;;;;;;;;;;;;;14.26;75.99;100082.54;108311;1254;72694;-82
2023/05/16 05:07:44;;;;;;;;;;;;;;;14.29;75.79;100083.78;107769;1258;124336;-82
2023/05/16 05:10:12;;;;;;;;;;;;;;;14.29;75.60;100084.85;108144;1254;60696;-81
2023/05/16 05:12:40;;;;;;;;;;;;;;;14.28;75.54;100091.18;108192;1254;74615;-81
2023/05/16 05:15:07;;;;;;;;;;;;;;;14.28;75.41;100095.07;107737;1257;124824;-81
2023/05/16 05:17:34;;;;;;;;;;;;;;;14.32;75.41;100091.02;107892;1259;71383;-81
2023/05/16 05:20:05;;;;;;;;;;;;;;;14.45;75.41;100095.41;107953;1254;124821;-82
2023/05/16 05:22:32;;;;;;;;;;;;;;;14.51;75.23;100094.52;107928;1255;60562;-81
2023/05/16 05:24:59;;;;;;;;;;;;;;;14.56;74.95;100101.40;108045;1254;73924;-82
2023/05/16 05:27:26;;;;;;;;;;;;;;;14.55;74.72;100104.77;108082;1254;124621;-81
2023/05/16 05:29:53;;;;;;;;;;;;;;;14.52;74.55;100101.05;108123;1257;73541;-81
2023/05/16 05:32:20;;;;;;;;;;;;;;;14.48;74.38;100105.13;108040;1254;125757;-81
2023/05/16 05:34:49;;;;;;;;;;;;;;;14.43;74.25;100108.66;107978;1257;60144;-81
2023/05/16 05:37:16;;;;;;;;;;;;;;;14.37;74.16;100107.96;107836;1257;73361;-81
2023/05/16 05:39:44;;;;;;;;;;;;;;;14.34;74.10;100109.91;107605;1257;125642;-81
2023/05/16 05:42:12;;;;;;;;;;;;;;;14.34;74.22;100108.31;107648;1257;72538;-82
2023/05/16 05:44:39;;;;;;;;;;;;;;;14.33;74.13;100113.95;107615;1254;125691;-82
2023/05/16 05:47:06;;;;;;;;;;;;;;;14.32;74.17;100118.02;107810;1257;62153;-81
2023/05/16 05:49:36;;;;;;;;;;;;;;;14.28;74.01;100126.15;108018;1254;74681;-81
2023/05/16 05:52:03;;;;;;;;;;;;;;;14.24;74.00;100128.95;107791;1257;125249;-81
2023/05/16 05:54:30;;;;;;;;;;;;;;;14.18;73.85;100134.96;108192;1254;72736;-82
2023/05/16 05:56:57;;;;;;;;;;;;;;;14.10;73.83;100146.08;107891;1259;125106;-82
2023/05/16 05:59:27;;;;;;;;;;;;;;;14.04;74.01;100150.48;107721;1254;60987;-81
2023/05/16 06:01:54;;;;;;;;;;;;;;;14.03;74.26;100158.23;107891;1257;125494;-82
2023/05/16 06:04:21;;;;;;;;;;;;;;;14.03;74.29;100160.71;107960;1254;65824;-81
2023/05/16 06:06:48;;;;;;;;;;;;;;;14.10;74.44;100166.88;107961;1258;72429;-82
2023/05/16 06:09:16;;;;;;;;;;;;;;;14.13;74.27;100172.01;108051;1257;124725;-82
2023/05/16 06:11:44;;;;;;;;;;;;;;;14.15;74.20;100180.30;107987;1254;60873;-82
2023/05/16 06:14:13;;;;;;;;;;;;;;;14.16;74.22;100190.72;107809;1257;124925;-82
2023/05/16 06:16:40;;;;;;;;;;;;;;;14.18;74.19;100195.84;108655;1257;67088;-82
2023/05/16 06:19:07;;;;;;;;;;;;;;;14.18;73.85;100197.95;107997;1259;70621;-83
2023/05/16 06:21:35;;;;;;;;;;;;;;;14.15;73.84;100202.89;107751;1254;124924;-82
2023/05/16 06:24:02;;;;;;;;;;;;;;;14.13;73.80;100204.66;108476;1259;61074;-82
2023/05/16 06:26:29;;;;;;;;;;;;;;;14.08;73.60;100207.65;108727;1257;125193;-81
2023/05/16 06:28:56;;;;;;;;;;;;;;;14.06;73.88;100214.52;109130;1254;66761;-80
2023/05/16 06:31:22;;;;;;;;;;;;;;;14.08;73.90;100215.59;109085;1254;71815;-82
2023/05/16 06:33:52;;;;;;;;;;;;;;;14.09;74.00;100224.23;108560;1254;125563;-83
2023/05/16 06:36:19;;;;;;;;;;;;;;;14.07;73.88;100232.34;107779;1254;61384;-83
2023/05/16 06:38:46;;;;;;;;;;;;;;;14.09;73.83;100238.70;107832;1254;125756;-80
2023/05/16 06:41:13;;;;;;;;;;;;;;;14.14;73.93;100241.54;108189;1254;65928;-80
2023/05/16 06:43:40;;;;;;;;;;;;;;;14.21;74.02;100247.02;108068;1254;73270;-81
2023/05/16 06:46:07;;;;;;;;;;;;;;;14.31;74.01;100251.28;107758;1254;125318;-81
2023/05/16 06:48:35;;;;;;;;;;;;;;;14.47;74.03;100255.17;107780;1257;59410;-82
2023/05/16 06:51:03;;;;;;;;;;;;;;;14.71;74.04;100259.46;107747;1257;125788;-81
2023/05/16 06:53:30;;;;;;;;;;;;;;;14.98;73.84;100261.23;107629;1259;67066;-86
2023/05/16 06:55:57;;;;;;;;;;;;;;;15.30;73.71;100265.05;107784;1257;124648;-80
2023/05/16 06:58:24;;;;;;;;;;;;;;;15.75;73.49;100263.89;108026;1256;59712;-81
2023/05/16 07:00:51;;;;;;;;;;;;;;;16.15;72.87;100272.20;107840;1259;60665;-81
2023/05/16 07:03:18;;;;;;;;;;;;;;;16.44;72.35;100283.54;107836;1254;124197;-84
2023/05/16 07:05:46;;;;;;;;;;;;;;;16.75;71.84;100287.92;107794;1260;65786;-83
2023/05/16 07:08:14;;;;;;;;;;;;;;;17.06;71.02;100294.63;107797;1254;124432;-83
2023/05/16 07:10:44;;;;;;;;;;;;;;;17.18;70.30;100299.65;107599;1254;59866;-83
2023/05/16 07:13:12;;;;;;;;;;;;;;;17.22;69.78;100307.40;107525;1254;62306;-82
2023/05/16 07:15:39;;;;;;;;;;;;;;;17.15;68.96;100313.67;107734;1257;125094;-84
2023/05/16 07:18:06;;;;;;;;;;;;;;;17.03;68.69;100322.11;107903;1254;67175;-83
2023/05/16 07:20:33;;;;;;;;;;;;;;;16.93;68.53;100331.41;107689;1254;124867;-81
2023/05/16 07:23:00;;;;;;;;;;;;;;;16.91;68.72;100336.04;107905;1256;60963;-81
2023/05/16 07:25:27;;;;;;;;;;;;;;;16.94;68.50;100344.17;108091;1259;59972;-81
2023/05/16 07:27:54;;;;;;;;;;;;;;;16.91;68.27;100354.48;108011;1255;124995;-81
2023/05/16 07:30:21;;;;;;;;;;;;;;;16.90;68.04;100361.39;108362;1257;67595;-81
2023/05/16 07:32:48;;;;;;;;;;;;;;;16.95;67.91;100369.15;107987;1260;125028;-81
2023/05/16 07:35:15;;;;;;;;;;;;;;;17.10;68.12;100372.59;108071;1254;59271;-81
2023/05/16 07:37:42;;;;;;;;;;;;;;;17.37;68.13;100377.49;108185;1255;59258;-81
2023/05/16 07:40:10;;;;;;;;;;;;;;;17.65;67.76;100380.42;108073;1257;73858;-81
2023/05/16 07:42:37;;;;;;;;;;;;;;;17.80;67.08;100382.40;108971;1257;67071;-81
2023/05/16 07:45:05;;;;;;;;;;;;;;;17.72;66.17;100389.40;108779;1254;124797;-81
2023/05/16 07:47:32;;;;;;;;;;;;;;;17.52;65.98;100402.20;109121;1256;59079;-84
2023/05/16 07:49:59;;;;;;;;;;;;;;;17.33;65.92;100402.73;109050;1256;124349;-82
2023/05/16 07:52:27;;;;;;;;;;;;;;;17.21;66.04;100411.51;109093;1257;73351;-81
2023/05/16 07:54:54;;;;;;;;;;;;;;;17.13;66.10;100414.40;108829;1254;65883;-82
2023/05/16 07:57:21;;;;;;;;;;;;;;;16.95;65.81;100423.92;108206;1258;124294;-83
2023/05/16 07:59:51;;;;;;;;;;;;;;;16.72;65.87;100441.04;107918;1257;62128;-84
2023/05/16 08:02:19;;;;;;;;;;;;;;;16.49;65.91;100447.51;107989;1254;125014;-82
2023/05/16 08:04:47;;;;;;;;;;;;;;;16.34;66.39;100456.77;107890;1259;75147;-82
2023/05/16 08:07:14;;;;;;;;;;;;;;;16.28;66.64;100462.11;107589;1254;67583;-82
2023/05/16 08:09:41;;;;;;;;;;;;;;;16.20;66.66;100465.86;107877;1254;124718;-82
2023/05/16 08:12:09;;;;;;;;;;;;;;;16.13;66.85;100467.98;108130;1254;61250;-82
2023/05/16 08:14:36;;;;;;;;;;;;;;;16.14;67.07;100466.58;108105;1255;124428;-81
2023/05/16 08:17:03;;;;;;;;;;;;;;;16.38;67.37;100471.46;108737;1257;75190;-81
2023/05/16 08:19:31;;;;;;;;;;;;;;;16.67;67.42;100468.86;108615;1254;67556;-82
2023/05/16 08:21:59;;;;;;;;;;;;;;;16.76;66.97;100474.48;107752;1257;124017;-82
2023/05/16 08:24:27;;;;;;;;;;;;;;;16.79;66.80;100479.27;107839;1260;59373;-83
2023/05/16 08:26:55;;;;;;;;;;;;;;;16.93;66.79;100484.02;107707;1261;123063;-82
2023/05/16 08:29:22;;;;;;;;;;;;;;;17.04;66.42;100485.91;107876;1261;75261;-82
2023/05/16 08:31:49;;;;;;;;;;;;;;;17.09;66.47;100490.30;107669;1254;124093;-83
2023/05/16 08:34:16;;;;;;;;;;;;;;;17.12;66.02;100496.85;107825;1259;72693;-92
2023/05/16 08:36:44;;;;;;;;;;;;;;;17.06;65.95;100503.62;107814;1255;59451;-81
2023/05/16 08:39:11;;;;;;;;;;;;;;;17.09;66.14;100505.91;107854;1260;124107;-80
2023/05/16 08:41:38;;;;;;;;;;;;;;;17.32;66.30;100516.77;107694;1263;75150;-82
2023/05/16 08:44:05;;;;;;;;;;;;;;;17.52;66.15;100521.95;107599;1254;124253;-80
2023/05/16 08:46:34;;;;;;;;;;;;;;;17.60;65.99;100529.52;107963;1260;71691;-80
2023/05/16 08:49:06;;;;;;;;;;;;;;;17.67;65.83;100536.21;107862;1257;60869;-82
2023/05/16 08:51:34;;;;;;;;;;;;;;;17.61;65.44;100542.29;108035;1260;124834;-80
2023/05/16 08:54:10;;;;;;;;;;;;;;;17.49;65.46;100551.07;108294;1255;73199;-81
2023/05/16 08:56:37;;;;;;;;;;;;;;;17.43;65.68;100555.19;107963;1257;124765;-80
2023/05/16 08:59:04;;;;;;;;;;;;;;;17.41;65.55;100553.08;107702;1260;71411;-81
2023/05/16 09:01:32;;;;;;;;;;;;;;;17.39;65.66;100561.59;107715;1257;59997;-81
2023/05/16 09:03:59;;;;;;;;;;;;;;;17.49;65.48;100565.08;107652;1254;124823;-80
2023/05/16 09:06:26;;;;;;;;;;;;;;;17.60;65.31;100570.70;108027;1254;74914;-80
2023/05/16 09:08:53;;;;;;;;;;;;;;;17.76;64.92;100569.34;107961;1262;124548;-81
2023/05/16 09:11:21;;;;;;;;;;;;;;;17.81;64.71;100565.57;108020;1262;72711;-81
2023/05/16 09:13:48;;;;;;;;;;;;;;;17.93;64.85;100566.05;108076;1257;124660;-84
2023/05/16 09:16:16;;;;;;;;;;;;;;;18.02;64.42;100570.92;107929;1254;61012;-81
2023/05/16 09:18:52;;;;;;;;;;;;;;;18.06;64.46;100570.73;107560;1262;73373;-80
2023/05/16 09:21:20;;;;;;;;;;;;;;;18.13;64.14;100572.27;107828;1255;124066;-80
2023/05/16 09:23:51;;;;;;;;;;;;;;;18.21;63.92;100570.59;107977;1259;73224;-81
2023/05/16 09:26:18;;;;;;;;;;;;;;;18.32;63.74;100569.06;107983;1254;124360;-80
2023/05/16 09:28:45;;;;;;;;;;;;;;;18.34;63.33;100586.63;107923;1269;61214;-79
2023/05/16 09:31:23;;;;;;;;;;;;;;;18.31;62.95;100588.98;108055;1260;74760;-79
2023/05/16 09:33:56;;;;;;;;;;;;;;;18.26;62.77;100593.45;108453;1259;124487;-80
2023/05/16 09:36:30;;;;;;;;;;;;;;;18.30;62.86;100601.05;107924;1257;70632;-87
2023/05/16 09:38:57;;;;;;;;;;;;;;;18.52;63.08;100609.38;107414;1254;124795;-84
2023/05/16 09:41:24;;;;;;;;;;;;;;;18.73;62.72;100613.24;107749;1259;59990;-82
2023/05/16 09:43:51;;;;;;;;;;;;;;;18.91;62.22;100622.32;107885;1254;124851;-81
2023/05/16 09:46:18;;;;;;;;;;;;;;;19.13;62.27;100629.71;107963;1260;65461;-81
2023/05/16 09:48:46;;;;;;;;;;;;;;;19.43;61.90;100632.89;107664;1260;72648;-81
2023/05/16 09:51:22;;;;;;;;;;;;;;;19.39;61.04;100630.08;107647;1257;124621;-84
2023/05/16 09:53:50;;;;;;;;;;;;;;;19.26;60.77;100640.75;107429;1258;61199;-84
2023/05/16 09:56:24;;;;;;;;;;;;;;;19.01;60.29;100640.70;107459;1254;124897;-85
2023/05/16 09:58:51;;;;;;;;;;;;;;;18.80;60.76;100648.02;107757;1258;64858;-85
2023/05/16 10:01:20;;;;;;;;;;;;;;;18.62;60.88;100650.69;107391;1254;72713;-85
2023/05/16 10:03:47;;;;;;;;;;;;;;;18.40;60.64;100662.96;107580;1257;124329;-85
2023/05/16 10:06:16;;;;;;;;;;;;;;;18.19;60.73;100664.73;107766;1258;61141;-84
2023/05/16 10:08:43;;;;;;;;;;;;;;;18.10;61.05;100667.83;108043;1256;124341;-81
2023/05/16 10:11:10;;;;;;;;;;;;;;;18.13;61.08;100665.48;108205;1257;65932;-81
2023/05/16 10:13:37;;;;;;;;;;;;;;;18.10;60.92;100668.52;107756;1257;71074;-81
2023/05/16 10:16:10;;;;;;;;;;;;;;;18.09;61.02;100657.02;107684;1254;181230;-85
2023/05/16 10:18:37;;;;;;;;;;;;;;;18.34;61.55;100648.08;107692;1254;60316;-85
2023/05/16 10:21:05;;;;;;;;;;;;;;;18.73;61.62;100646.49;107599;1257;124086;-84
2023/05/16 10:23:32;;;;;;;;;;;;;;;18.98;61.42;100642.16;108963;1258;65896;-84
2023/05/16 10:26:00;;;;;;;;;;;;;;;19.17;61.06;100648.16;108767;1260;124115;-81
2023/05/16 10:28:26;;;;;;;;;;;;;;;19.27;60.40;100653.39;108840;1254;60035;-82
2023/05/16 10:30:53;;;;;;;;;;;;;;;19.39;60.06;100649.14;108956;1254;59278;-82
2023/05/16 10:33:21;;;;;;;;;;;;;;;19.62;59.77;100646.32;109038;1254;124596;-82
2023/05/16 10:35:49;;;;;;;;;;;;;;;19.89;59.71;100645.98;109124;1254;67066;-82
2023/05/16 10:38:17;;;;;;;;;;;;;;;20.12;59.16;100646.86;108783;1254;125111;-82
2023/05/16 10:40:43;;;;;;;;;;;;;;;20.17;58.65;100653.39;108773;1254;59812;-81
2023/05/16 10:43:10;;;;;;;;;;;;;;;20.17;58.40;100647.13;108909;1255;59260;-84
2023/05/16 10:45:40;;;;;;;;;;;;;;;20.11;58.36;100647.23;108834;1254;124631;-84
2023/05/16 10:48:08;;;;;;;;;;;;;;;20.00;58.20;100640.11;108812;1257;65858;-82
2023/05/16 10:50:42;;;;;;;;;;;;;;;19.85;58.07;100638.02;107661;1260;124618;-83
2023/05/16 10:53:28;;;;;;;;;;;;;;;19.70;58.17;100641.95;107764;1255;61346;-83
2023/05/16 10:55:58;;;;;;;;;;;;;;;19.82;58.64;100656.23;108146;1254;125265;-81
2023/05/16 10:58:34;;;;;;;;;;;;;;;20.14;58.47;100664.65;108125;1254;73619;-82
2023/05/16 11:01:16;;;;;;;;;;;;;;;20.34;57.81;100656.14;108000;1254;67458;-83
2023/05/16 11:03:55;;;;;;;;;;;;;;;20.50;57.48;100655.88;107894;1254;124736;-84
2023/05/16 11:06:33;;;;;;;;;;;;;;;20.73;57.64;100660.48;107663;1254;60025;-84
2023/05/16 11:09:09;;;;;;;;;;;;;;;20.92;57.39;100666.89;107868;1255;124078;-80
2023/05/16 11:11:45;;;;;;;;;;;;;;;20.96;56.80;100675.39;108114;1254;72928;-80
2023/05/16 11:14:36;;;;;;;;;;;;;;;20.95;56.52;100682.00;108926;1254;124781;-83
2023/05/16 11:17:14;;;;;;;;;;;;;;;21.05;56.58;100681.29;108839;1254;71055;-81
2023/05/16 11:19:47;;;;;;;;;;;;;;;21.19;56.17;100684.94;109108;1257;59308;-81
2023/05/16 11:22:17;;;;;;;;;;;;;;;21.15;55.17;100692.86;108074;1254;61517;-81
2023/05/16 11:24:48;;;;;;;;;;;;;;;20.95;54.65;100696.63;107674;1254;74469;-82
2023/05/16 11:27:25;;;;;;;;;;;;;;;20.84;54.89;100698.62;107580;1257;124642;-81
2023/05/16 11:29:53;;;;;;;;;;;;;;;20.73;54.74;100700.95;107856;1257;72956;-81
2023/05/16 11:32:21;;;;;;;;;;;;;;;20.67;54.91;100704.08;108096;1254;124731;-81
2023/05/16 11:34:49;;;;;;;;;;;;;;;20.49;54.57;100717.19;108219;1257;60356;-80
2023/05/16 11:37:19;;;;;;;;;;;;;;;20.25;54.71;100719.52;107973;1254;74698;-80
2023/05/16 11:39:46;;;;;;;;;;;;;;;20.27;55.26;100728.42;108067;1260;124206;-80
2023/05/16 11:42:13;;;;;;;;;;;;;;;20.46;55.30;100740.94;108405;1254;72791;-81
2023/05/16 11:44:40;;;;;;;;;;;;;;;20.71;55.38;100743.06;108003;1257;124646;-80
2023/05/16 11:47:07;;;;;;;;;;;;;;;21.04;55.41;100753.19;108043;1254;60950;-81
2023/05/16 11:49:34;;;;;;;;;;;;;;;21.28;54.96;100757.92;108225;1254;73416;-82
2023/05/16 11:52:02;;;;;;;;;;;;;;;21.42;54.66;100754.63;108288;1257;124428;-84
2023/05/16 11:54:29;;;;;;;;;;;;;;;21.51;54.29;100761.96;108378;1257;72345;-81
2023/05/16 11:56:56;;;;;;;;;;;;;;;21.43;54.02;100760.85;108093;1257;124320;-81
2023/05/16 11:59:23;;;;;;;;;;;;;;;21.37;53.86;100766.34;108219;1257;59995;-81
2023/05/16 12:01:50;;;;;;;;;;;;;;;21.39;53.63;100774.69;108011;1254;124723;-82
2023/05/16 12:04:19;;;;;;;;;;;;;;;21.39;53.50;100780.94;107979;1257;67836;-80
2023/05/16 12:06:56;;;;;;;;;;;;;;;21.35;53.36;100784.38;107909;1254;71136;-80
2023/05/16 12:09:23;;;;;;;;;;;;;;;21.30;53.30;100772.34;107835;1254;124804;-80
2023/05/16 12:11:50;;;;;;;;;;;;;;;21.31;53.11;100769.82;108037;1255;59284;-81
2023/05/16 12:14:17;;;;;;;;;;;;;;;21.34;52.95;100766.36;107594;1256;124900;-82
2023/05/16 12:16:45;;;;;;;;;;;;;;;21.32;52.76;100762.67;107751;1254;66801;-83
2023/05/16 12:19:12;;;;;;;;;;;;;;;21.35;52.68;100767.23;107581;1254;291838;-82
2023/05/16 12:21:39;;;;;;;;;;;;;;;21.43;52.56;100770.67;107872;1254;124266;-82
2023/05/16 12:24:11;;;;;;;;;;;;;;;21.50;52.36;100781.09;107881;1254;60669;-83
2023/05/16 12:26:38;;;;;;;;;;;;;;;21.46;52.14;100788.14;107966;1254;124223;-82
2023/05/16 12:29:05;;;;;;;;;;;;;;;21.42;52.23;100787.82;107864;1256;66420;-82
2023/05/16 12:31:36;;;;;;;;;;;;;;;21.42;52.26;100787.27;107994;1254;72808;-82
2023/05/16 12:34:03;;;;;;;;;;;;;;;21.39;52.07;100789.48;107827;1255;124244;-83